createdAt,value
2017-06-10T00:00:28.987Z,87.00
2017-06-10T00:02:57.145Z,87.20
2017-06-10T00:05:25.344Z,87.00
2017-06-10T00:07:54.257Z,86.50
2017-06-10T00:10:22.426Z,86.40
2017-06-10T00:12:51.397Z,86.10
2017-06-10T00:15:19.573Z,86.20
2017-06-10T00:17:47.728Z,86.10
2017-06-10T00:20:15.936Z,86.40
2017-06-10T00:22:44.854Z,86.70
2017-06-10T00:25:13.028Z,86.60
2017-06-10T00:27:41.205Z,87.00
2017-06-10T00:30:10.160Z,86.80
2017-06-10T00:32:38.316Z,86.80
2017-06-10T00:35:06.501Z,86.60
2017-06-10T00:37:34.666Z,87.00
2017-06-10T00:40:02.833Z,86.60
2017-06-10T00:42:31.038Z,86.20
2017-06-10T00:44:59.217Z,85.90
2017-06-10T00:47:27.439Z,86.00
2017-06-10T00:49:55.644Z,86.00
2017-06-10T00:52:23.794Z,86.00
2017-06-10T00:54:51.966Z,86.00
2017-06-10T00:57:20.169Z,86.00
2017-06-10T00:59:48.344Z,86.00
2017-06-10T01:02:16.507Z,86.10
2017-06-10T01:04:44.712Z,85.80
2017-06-10T01:07:13.866Z,85.90
2017-06-10T01:09:42.041Z,85.80
2017-06-10T01:12:10.252Z,86.30
2017-06-10T01:14:39.201Z,86.00
2017-06-10T01:17:07.375Z,85.90
2017-06-10T01:19:35.563Z,86.00
2017-06-10T01:22:03.998Z,86.00
2017-06-10T01:24:32.209Z,86.00
2017-06-10T01:27:00.406Z,86.00
2017-06-10T01:29:28.580Z,85.90
2017-06-10T01:31:56.736Z,86.20
2017-06-10T01:34:25.257Z,86.30
2017-06-10T01:36:53.717Z,86.50
2017-06-10T01:39:21.874Z,86.50
2017-06-10T01:41:50.063Z,86.80
2017-06-10T01:44:18.220Z,86.70
2017-06-10T01:46:46.419Z,86.90
2017-06-10T01:49:14.621Z,86.90
2017-06-10T01:51:42.789Z,87.30
2017-06-10T01:54:11.712Z,87.20
2017-06-10T01:56:39.909Z,87.20
2017-06-10T01:59:08.066Z,87.40
2017-06-10T02:01:36.241Z,87.30
2017-06-10T02:04:04.422Z,87.20
2017-06-10T02:06:32.570Z,86.80
2017-06-10T02:09:00.733Z,87.20
2017-06-10T02:11:29.683Z,86.90
2017-06-10T02:13:57.862Z,86.80
2017-06-10T02:16:26.033Z,87.00
2017-06-10T02:18:54.245Z,87.00
2017-06-10T02:21:23.182Z,86.80
2017-06-10T02:23:51.364Z,86.80
2017-06-10T02:26:19.562Z,86.90
2017-06-10T02:28:47.713Z,86.70
2017-06-10T02:31:15.869Z,86.80
2017-06-10T02:33:44.046Z,86.30
2017-06-10T02:36:12.234Z,86.20
2017-06-10T02:38:40.400Z,85.90
2017-06-10T02:41:09.001Z,86.10
2017-06-10T02:43:37.154Z,85.80
2017-06-10T02:46:05.320Z,85.90
2017-06-10T02:48:33.528Z,85.80
2017-06-10T02:51:01.678Z,86.10
2017-06-10T02:53:29.826Z,86.00
2017-06-10T02:55:58.006Z,86.10
2017-06-10T02:58:26.154Z,85.90
2017-06-10T03:00:54.306Z,85.90
2017-06-10T03:03:22.493Z,86.20
2017-06-10T03:05:50.671Z,85.80
2017-06-10T03:08:18.843Z,85.50
2017-06-10T03:10:47.040Z,85.70
2017-06-10T03:13:15.194Z,85.40
2017-06-10T03:15:43.388Z,85.30
2017-06-10T03:18:12.369Z,85.60
2017-06-10T03:20:40.521Z,85.60
2017-06-10T03:23:08.696Z,85.30
2017-06-10T03:25:36.898Z,85.50
2017-06-10T03:28:05.069Z,85.10
2017-06-10T03:30:33.240Z,85.30
2017-06-10T03:33:02.199Z,85.40
2017-06-10T03:35:30.350Z,85.40
2017-06-10T03:37:58.513Z,85.50
2017-06-10T03:40:26.715Z,85.60
2017-06-10T03:42:54.869Z,85.70
2017-06-10T03:45:23.048Z,85.40
2017-06-10T03:47:51.658Z,85.20
2017-06-10T03:50:19.809Z,85.30
2017-06-10T03:52:47.973Z,85.50
2017-06-10T03:55:16.173Z,85.90
2017-06-10T03:57:44.348Z,86.40
2017-06-10T04:00:12.506Z,86.00
2017-06-10T04:02:40.716Z,86.20
2017-06-10T04:05:08.870Z,86.10
2017-06-10T04:07:37.032Z,86.90
2017-06-10T04:10:05.214Z,87.40
2017-06-10T04:12:33.374Z,87.40
2017-06-10T04:15:01.535Z,87.80
2017-06-10T04:17:30.509Z,87.00
2017-06-10T04:19:58.684Z,87.00
2017-06-10T04:22:26.838Z,86.50
2017-06-10T04:24:55.022Z,86.70
2017-06-10T04:27:23.191Z,86.60
2017-06-10T04:29:51.368Z,86.40
2017-06-10T04:32:19.617Z,86.50
2017-06-10T04:34:47.780Z,86.80
2017-06-10T04:37:16.718Z,86.40
2017-06-10T04:39:44.897Z,86.30
2017-06-10T04:42:13.077Z,86.10
2017-06-10T04:44:41.255Z,86.40
2017-06-10T04:47:09.781Z,86.40
2017-06-10T04:49:37.958Z,86.20
2017-06-10T04:52:06.155Z,85.80
2017-06-10T04:54:35.112Z,86.20
2017-06-10T04:57:03.287Z,86.20
2017-06-10T04:59:31.445Z,86.80
2017-06-10T05:01:59.644Z,86.90
2017-06-10T05:04:27.796Z,86.70
2017-06-10T05:06:55.971Z,85.80
2017-06-10T05:09:24.177Z,85.70
2017-06-10T05:11:52.350Z,84.60
2017-06-10T05:14:20.528Z,83.30
2017-06-10T05:16:48.728Z,83.90
2017-06-10T05:19:17.665Z,83.70
2017-06-10T05:21:45.822Z,83.60
2017-06-10T05:24:14.028Z,83.80
2017-06-10T05:26:42.208Z,83.40
2017-06-10T05:29:10.359Z,82.50
2017-06-10T05:31:38.561Z,82.00
2017-06-10T05:34:06.725Z,81.80
2017-06-10T05:36:34.903Z,81.40
2017-06-10T05:39:03.339Z,82.30
2017-06-10T05:41:31.513Z,81.40
2017-06-10T05:43:59.680Z,80.20
2017-06-10T05:46:27.854Z,78.90
2017-06-10T05:48:56.014Z,77.70
2017-06-10T05:51:24.937Z,77.90
2017-06-10T05:53:53.150Z,77.80
2017-06-10T05:56:21.316Z,78.20
2017-06-10T05:58:49.500Z,78.40
2017-06-10T06:01:17.703Z,78.40
2017-06-10T06:03:45.868Z,78.90
2017-06-10T06:06:14.044Z,79.00
2017-06-10T06:08:42.252Z,78.60
2017-06-10T06:11:10.418Z,78.20
2017-06-10T06:13:38.584Z,78.40
2017-06-10T06:16:07.542Z,78.60
2017-06-10T06:18:35.705Z,78.50
2017-06-10T06:21:03.874Z,77.70
2017-06-10T06:23:32.065Z,78.00
2017-06-10T06:26:00.218Z,75.60
2017-06-10T06:28:28.411Z,76.60
2017-06-10T06:30:56.617Z,76.30
2017-06-10T06:33:25.536Z,74.80
2017-06-10T06:35:53.705Z,74.30
2017-06-10T06:38:21.885Z,73.90
2017-06-10T06:40:50.052Z,72.10
2017-06-10T06:43:18.211Z,74.40
2017-06-10T06:45:46.412Z,73.40
2017-06-10T06:48:15.475Z,71.70
2017-06-10T06:50:44.408Z,73.90
2017-06-10T06:53:12.623Z,73.90
2017-06-10T06:55:40.778Z,72.40
2017-06-10T06:58:09.766Z,71.50
2017-06-10T07:00:37.960Z,71.40
2017-06-10T07:03:06.112Z,72.10
2017-06-10T07:05:34.284Z,70.80
2017-06-10T07:08:02.492Z,70.60
2017-06-10T07:10:30.650Z,70.30
2017-06-10T07:12:58.834Z,69.90
2017-06-10T07:15:27.037Z,70.40
2017-06-10T07:17:55.958Z,70.70
2017-06-10T07:20:24.157Z,70.70
2017-06-10T07:22:52.342Z,70.10
2017-06-10T07:25:20.506Z,67.20
2017-06-10T07:27:48.659Z,69.40
2017-06-10T07:30:16.863Z,68.10
2017-06-10T07:32:45.042Z,67.10
2017-06-10T07:35:13.201Z,65.20
2017-06-10T07:37:41.396Z,66.90
2017-06-10T07:40:09.546Z,67.50
2017-06-10T07:42:37.688Z,66.30
2017-06-10T07:45:05.890Z,63.20
2017-06-10T07:47:34.042Z,64.20
2017-06-10T07:50:02.210Z,66.40
2017-06-10T07:52:30.390Z,63.50
2017-06-10T07:54:58.552Z,62.70
2017-06-10T07:57:26.720Z,60.30
2017-06-10T07:59:55.685Z,60.10
2017-06-10T08:02:23.840Z,60.00
2017-06-10T08:04:52.004Z,59.70
2017-06-10T08:07:20.200Z,59.60
2017-06-10T08:09:48.575Z,58.20
2017-06-10T08:12:16.743Z,58.60
2017-06-10T08:14:44.965Z,58.40
2017-06-10T08:17:13.182Z,58.40
2017-06-10T08:19:41.334Z,57.10
2017-06-10T08:22:09.512Z,55.60
2017-06-10T08:24:37.661Z,55.50
2017-06-10T08:27:05.822Z,50.60
2017-06-10T08:29:34.778Z,47.90
2017-06-10T08:32:02.956Z,47.90
2017-06-10T08:34:31.114Z,47.80
2017-06-10T08:36:59.423Z,45.60
2017-06-10T08:39:27.596Z,43.10
2017-06-10T08:41:55.748Z,42.10
2017-06-10T08:44:24.934Z,41.70
2017-06-10T08:46:53.114Z,41.90
2017-06-10T08:49:21.281Z,41.00
2017-06-10T08:51:49.481Z,40.20
2017-06-10T08:54:17.629Z,39.50
2017-06-10T08:56:45.885Z,37.20
2017-06-10T08:59:14.096Z,35.50
2017-06-10T09:01:42.266Z,34.00
2017-06-10T09:04:10.452Z,33.10
2017-06-10T09:06:38.652Z,34.40
2017-06-10T09:09:06.820Z,34.00
2017-06-10T09:11:34.988Z,32.80
2017-06-10T09:14:03.168Z,32.60
2017-06-10T09:16:31.346Z,31.80
2017-06-10T09:18:59.516Z,31.70
2017-06-10T09:21:27.713Z,33.70
2017-06-10T09:23:55.868Z,34.50
2017-06-10T09:26:24.018Z,33.80
2017-06-10T09:28:52.197Z,32.40
2017-06-10T09:31:20.367Z,32.90
2017-06-10T09:33:48.519Z,31.80
2017-06-10T09:36:16.695Z,30.00
2017-06-10T09:38:44.849Z,30.70
2017-06-10T09:41:13.017Z,31.20
2017-06-10T09:43:41.966Z,27.50
2017-06-10T09:46:10.197Z,27.40
2017-06-10T09:48:38.344Z,27.00
2017-06-10T09:51:06.532Z,26.40
2017-06-10T09:53:35.446Z,28.80
2017-06-10T09:56:03.604Z,28.80
2017-06-10T09:58:32.568Z,26.70
2017-06-10T10:01:00.715Z,26.60
2017-06-10T10:03:28.862Z,24.80
2017-06-10T10:05:57.066Z,25.20
2017-06-10T10:08:25.214Z,23.80
2017-06-10T10:10:53.383Z,23.70
2017-06-10T10:13:21.577Z,24.00
2017-06-10T10:15:49.737Z,25.40
2017-06-10T10:18:17.906Z,26.40
2017-06-10T10:20:46.120Z,26.80
2017-06-10T10:23:14.270Z,26.50
2017-06-10T10:25:42.441Z,28.20
2017-06-10T10:28:10.618Z,27.70
2017-06-10T10:30:38.761Z,27.00
2017-06-10T10:33:07.688Z,25.30
2017-06-10T10:35:35.870Z,25.30
2017-06-10T10:38:04.036Z,25.40
2017-06-10T10:40:32.204Z,26.00
2017-06-10T10:43:00.394Z,24.40
2017-06-10T10:45:28.556Z,24.20
2017-06-10T10:47:56.717Z,23.80
2017-06-10T10:50:24.918Z,25.10
2017-06-10T10:52:53.093Z,26.10
2017-06-10T10:55:21.261Z,25.50
2017-06-10T10:57:49.460Z,24.50
2017-06-10T11:00:17.612Z,24.60
2017-06-10T11:02:45.767Z,27.40
2017-06-10T11:05:13.980Z,28.10
2017-06-10T11:07:42.140Z,26.20
2017-06-10T11:10:10.291Z,24.70
2017-06-10T11:12:38.466Z,23.50
2017-06-10T11:15:06.639Z,24.80
2017-06-10T11:17:34.793Z,24.10
2017-06-10T11:20:03.753Z,27.20
2017-06-10T11:22:31.921Z,27.20
2017-06-10T11:25:00.066Z,26.80
2017-06-10T11:27:28.276Z,28.60
2017-06-10T11:29:56.444Z,29.50
2017-06-10T11:32:24.625Z,31.20
2017-06-10T11:34:52.842Z,31.30
2017-06-10T11:37:21.006Z,31.90
2017-06-10T11:39:49.184Z,31.00
2017-06-10T11:42:17.393Z,32.40
2017-06-10T11:44:45.575Z,36.50
2017-06-10T11:47:13.729Z,36.30
2017-06-10T11:49:41.919Z,34.90
2017-06-10T11:52:10.082Z,35.80
2017-06-10T11:54:38.271Z,36.00
2017-06-10T11:57:06.462Z,38.00
2017-06-10T11:59:34.614Z,39.30
2017-06-10T12:02:03.544Z,39.60
2017-06-10T12:04:32.454Z,38.20
2017-06-10T12:07:01.400Z,36.10
2017-06-10T12:09:29.554Z,36.10
2017-06-10T12:11:57.746Z,36.30
2017-06-10T12:14:25.931Z,37.00
2017-06-10T12:16:54.105Z,34.40
2017-06-10T12:19:22.386Z,33.50
2017-06-10T12:21:50.556Z,32.70
2017-06-10T12:24:18.718Z,35.20
2017-06-10T12:26:46.919Z,35.10
2017-06-10T12:29:15.105Z,36.90
2017-06-10T12:31:43.289Z,35.90
2017-06-10T12:34:11.501Z,33.60
2017-06-10T12:36:40.418Z,35.60
2017-06-10T12:39:08.599Z,35.50
2017-06-10T12:41:36.807Z,35.50
2017-06-10T12:44:05.011Z,34.80
2017-06-10T12:46:33.930Z,35.70
2017-06-10T12:49:02.137Z,35.60
2017-06-10T12:51:30.292Z,36.50
2017-06-10T12:53:58.465Z,37.60
2017-06-10T12:56:26.673Z,36.30
2017-06-10T12:58:54.830Z,34.30
2017-06-10T13:01:22.987Z,35.50
2017-06-10T13:03:51.192Z,36.00
2017-06-10T13:06:19.370Z,35.80
2017-06-10T13:08:47.543Z,35.30
2017-06-10T13:11:15.718Z,35.90
2017-06-10T13:13:43.871Z,35.40
2017-06-10T13:16:12.026Z,37.90
2017-06-10T13:18:40.206Z,38.00
2017-06-10T13:21:08.354Z,38.70
2017-06-10T13:23:37.266Z,39.60
2017-06-10T13:26:05.456Z,39.60
2017-06-10T13:28:33.606Z,40.70
2017-06-10T13:31:01.776Z,41.10
2017-06-10T13:33:30.718Z,40.70
2017-06-10T13:35:58.871Z,40.70
2017-06-10T13:38:27.026Z,40.30
2017-06-10T13:40:55.216Z,40.60
2017-06-10T13:43:23.390Z,39.60
2017-06-10T13:45:51.541Z,38.10
2017-06-10T13:48:19.729Z,39.00
2017-06-10T13:50:47.930Z,37.50
2017-06-10T13:53:16.103Z,35.30
2017-06-10T13:55:44.285Z,36.70
2017-06-10T13:58:12.449Z,38.00
2017-06-10T14:00:40.608Z,36.50
2017-06-10T14:03:08.800Z,35.30
2017-06-10T14:05:36.976Z,35.70
2017-06-10T14:08:05.140Z,35.70
2017-06-10T14:10:33.356Z,34.80
2017-06-10T14:13:01.536Z,34.30
2017-06-10T14:15:29.714Z,34.30
2017-06-10T14:17:57.898Z,34.50
2017-06-10T14:20:26.843Z,36.80
2017-06-10T14:22:54.998Z,36.70
2017-06-10T14:25:23.201Z,35.90
2017-06-10T14:27:51.354Z,34.70
2017-06-10T14:30:19.515Z,35.50
2017-06-10T14:32:47.715Z,36.10
2017-06-10T14:35:15.880Z,37.10
2017-06-10T14:37:44.048Z,36.90
2017-06-10T14:40:12.221Z,37.00
2017-06-10T14:42:40.366Z,38.30
2017-06-10T14:45:09.304Z,38.40
2017-06-10T14:47:37.497Z,38.40
2017-06-10T14:50:05.713Z,39.60
2017-06-10T14:52:36.413Z,40.50
2017-06-10T14:55:04.859Z,40.40
2017-06-10T14:57:33.096Z,38.80
2017-06-10T15:00:01.241Z,39.30
2017-06-10T15:02:30.207Z,39.10
2017-06-10T15:04:58.358Z,39.10
2017-06-10T15:07:26.525Z,39.20
2017-06-10T15:09:54.717Z,39.90
2017-06-10T15:12:22.870Z,39.70
2017-06-10T15:14:51.034Z,38.90
2017-06-10T15:17:19.212Z,38.70
2017-06-10T15:19:47.354Z,39.20
2017-06-10T15:22:16.292Z,39.90
2017-06-10T15:24:44.481Z,39.90
2017-06-10T15:27:12.626Z,38.70
2017-06-10T15:29:41.545Z,38.70
2017-06-10T15:32:09.737Z,38.60
2017-06-10T15:34:37.886Z,38.00
2017-06-10T15:37:06.036Z,38.70
2017-06-10T15:39:34.989Z,39.60
2017-06-10T15:42:03.129Z,39.50
2017-06-10T15:44:31.292Z,40.60
2017-06-10T15:46:59.465Z,40.00
2017-06-10T15:49:27.636Z,39.20
2017-06-10T15:51:55.781Z,39.10
2017-06-10T15:54:23.972Z,39.40
2017-06-10T15:56:52.119Z,39.50
2017-06-10T15:59:20.273Z,39.10
2017-06-10T16:01:48.458Z,39.50
2017-06-10T16:04:16.601Z,38.40
2017-06-10T16:06:44.765Z,39.20
2017-06-10T16:09:13.338Z,39.40
2017-06-10T16:11:41.489Z,40.00
2017-06-10T16:14:09.659Z,40.70
2017-06-10T16:16:37.857Z,41.00
2017-06-10T16:19:06.024Z,40.90
2017-06-10T16:21:34.201Z,41.30
2017-06-10T16:24:02.400Z,41.50
2017-06-10T16:26:30.568Z,42.20
2017-06-10T16:28:58.719Z,43.00
2017-06-10T16:31:26.898Z,43.40
2017-06-10T16:33:55.057Z,43.20
2017-06-10T16:36:23.225Z,43.40
2017-06-10T16:38:51.421Z,44.20
2017-06-10T16:41:19.585Z,44.10
2017-06-10T16:43:47.741Z,43.20
2017-06-10T16:46:15.936Z,43.70
2017-06-10T16:48:44.096Z,43.70
2017-06-10T16:51:12.263Z,43.70
2017-06-10T16:53:40.457Z,44.50
2017-06-10T16:56:08.602Z,45.20
2017-06-10T16:58:36.786Z,45.60
2017-06-10T17:01:04.971Z,45.00
2017-06-10T17:03:33.137Z,44.70
2017-06-10T17:06:01.298Z,44.30
2017-06-10T17:08:29.469Z,44.00
2017-06-10T17:10:57.631Z,44.40
2017-06-10T17:13:26.541Z,45.70
2017-06-10T17:15:54.718Z,45.70
2017-06-10T17:18:22.886Z,45.00
2017-06-10T17:20:51.093Z,44.80
2017-06-10T17:23:19.266Z,46.00
2017-06-10T17:25:47.428Z,45.90
2017-06-10T17:28:15.578Z,44.50
2017-06-10T17:30:44.520Z,46.70
2017-06-10T17:33:12.665Z,46.60
2017-06-10T17:35:40.810Z,46.80
2017-06-10T17:38:09.749Z,47.20
2017-06-10T17:40:37.894Z,47.10
2017-06-10T17:43:06.042Z,47.90
2017-06-10T17:45:34.991Z,47.70
2017-06-10T17:48:03.164Z,47.70
2017-06-10T17:50:31.314Z,52.60
2017-06-10T17:52:59.543Z,55.80
2017-06-10T17:55:27.698Z,57.30
2017-06-10T17:57:55.846Z,58.80
2017-06-10T18:00:25.017Z,59.80
2017-06-10T18:02:53.944Z,62.20
2017-06-10T18:05:22.089Z,62.10
2017-06-10T18:07:51.048Z,62.40
2017-06-10T18:10:19.203Z,62.20
2017-06-10T18:12:47.348Z,62.20
2017-06-10T18:15:15.528Z,61.20
2017-06-10T18:17:43.669Z,60.60
2017-06-10T18:20:12.584Z,60.50
2017-06-10T18:22:40.759Z,60.50
2017-06-10T18:25:11.852Z,59.60
2017-06-10T18:27:40.016Z,59.40
2017-06-10T18:30:08.190Z,59.20
2017-06-10T18:32:36.335Z,59.10
2017-06-10T18:35:04.481Z,59.40
2017-06-10T18:37:33.439Z,59.30
2017-06-10T18:40:01.617Z,59.30
2017-06-10T18:42:29.776Z,59.30
2017-06-10T18:44:57.968Z,59.00
2017-06-10T18:47:26.132Z,58.90
2017-06-10T18:49:54.301Z,59.30
2017-06-10T18:52:22.504Z,59.30
2017-06-10T18:54:50.674Z,59.60
2017-06-10T18:57:18.843Z,59.70
2017-06-10T18:59:47.030Z,62.80
2017-06-10T19:02:15.201Z,62.70
2017-06-10T19:04:43.352Z,65.00
2017-06-10T19:07:11.526Z,64.00
2017-06-10T19:09:39.668Z,64.20
2017-06-10T19:12:07.834Z,64.40
2017-06-10T19:14:36.011Z,63.70
2017-06-10T19:17:04.185Z,62.90
2017-06-10T19:19:32.360Z,62.50
2017-06-10T19:22:00.538Z,61.40
2017-06-10T19:24:28.687Z,60.40
2017-06-10T19:26:57.598Z,59.70
2017-06-10T19:29:25.773Z,59.60
2017-06-10T19:31:53.926Z,59.40
2017-06-10T19:34:22.088Z,59.30
2017-06-10T19:36:50.283Z,59.30
2017-06-10T19:39:19.190Z,59.50
2017-06-10T19:41:47.357Z,59.50
2017-06-10T19:44:15.588Z,59.50
2017-06-10T19:46:43.746Z,59.20
2017-06-10T19:49:11.893Z,59.00
2017-06-10T19:51:40.084Z,58.90
2017-06-10T19:54:08.260Z,58.30
2017-06-10T19:56:36.406Z,58.20
2017-06-10T19:59:04.608Z,58.30
2017-06-10T20:01:32.758Z,58.30
2017-06-10T20:04:00.901Z,58.40
2017-06-10T20:06:29.078Z,58.50
2017-06-10T20:08:58.012Z,58.70
2017-06-10T20:11:26.185Z,58.70
2017-06-10T20:13:54.404Z,59.00
2017-06-10T20:16:22.557Z,59.20
2017-06-10T20:18:50.697Z,59.00
2017-06-10T20:21:18.895Z,58.90
2017-06-10T20:23:47.061Z,59.30
2017-06-10T20:26:15.233Z,59.50
2017-06-10T20:28:43.412Z,59.80
2017-06-10T20:31:11.557Z,59.80
2017-06-10T20:33:40.465Z,60.10
2017-06-10T20:36:08.642Z,60.00
2017-06-10T20:38:36.812Z,61.00
2017-06-10T20:41:04.987Z,61.20
2017-06-10T20:43:33.185Z,62.00
2017-06-10T20:46:01.360Z,60.90
2017-06-10T20:48:29.537Z,60.90
2017-06-10T20:50:57.713Z,61.10
2017-06-10T20:53:25.862Z,61.20
2017-06-10T20:55:54.017Z,61.50
2017-06-10T20:58:22.965Z,61.30
2017-06-10T21:00:51.108Z,61.30
2017-06-10T21:03:19.280Z,61.40
2017-06-10T21:05:47.482Z,61.90
2017-06-10T21:08:15.655Z,61.70
2017-06-10T21:10:43.815Z,62.00
2017-06-10T21:13:12.001Z,62.40
2017-06-10T21:15:40.171Z,62.70
2017-06-10T21:18:08.321Z,63.00
2017-06-10T21:20:36.520Z,62.90
2017-06-10T21:23:04.669Z,62.80
2017-06-10T21:25:32.842Z,62.40
2017-06-10T21:28:01.043Z,61.60
2017-06-10T21:30:29.217Z,62.90
2017-06-10T21:32:57.392Z,62.80
2017-06-10T21:35:25.588Z,62.40
2017-06-10T21:37:53.766Z,62.40
2017-06-10T21:40:21.957Z,62.60
2017-06-10T21:42:50.147Z,62.70
2017-06-10T21:45:19.086Z,63.30
2017-06-10T21:47:47.233Z,63.30
2017-06-10T21:50:15.459Z,63.40
2017-06-10T21:52:43.623Z,63.90
2017-06-10T21:55:11.788Z,63.80
2017-06-10T21:57:39.999Z,63.90
2017-06-10T22:00:08.168Z,64.40
2017-06-10T22:02:36.345Z,64.40
2017-06-10T22:05:04.548Z,64.20
2017-06-10T22:07:32.721Z,64.90
2017-06-10T22:10:01.633Z,66.40
2017-06-10T22:12:29.822Z,66.40
2017-06-10T22:14:57.988Z,67.00
2017-06-10T22:17:26.156Z,67.00
2017-06-10T22:19:54.368Z,67.30
2017-06-10T22:22:22.536Z,67.50
2017-06-10T22:24:50.701Z,67.60
2017-06-10T22:27:18.897Z,67.80
2017-06-10T22:29:47.067Z,68.10
2017-06-10T22:32:15.227Z,68.50
2017-06-10T22:34:43.432Z,68.70
2017-06-10T22:37:11.605Z,69.10
2017-06-10T22:39:39.769Z,69.60
2017-06-10T22:42:07.960Z,69.50
2017-06-10T22:44:36.111Z,69.90
2017-06-10T22:47:04.281Z,69.80
2017-06-10T22:49:32.541Z,70.40
2017-06-10T22:52:00.701Z,71.00
2017-06-10T22:54:28.846Z,70.90
2017-06-10T22:56:57.797Z,71.20
2017-06-10T22:59:25.954Z,71.20
2017-06-10T23:01:54.102Z,71.00
2017-06-10T23:04:22.313Z,70.90
2017-06-10T23:06:50.481Z,71.20
2017-06-10T23:09:18.649Z,71.30
2017-06-10T23:11:46.849Z,71.50
2017-06-10T23:14:15.017Z,71.50
2017-06-10T23:16:43.164Z,71.60
2017-06-10T23:19:11.343Z,71.50
2017-06-10T23:21:39.531Z,71.80
2017-06-10T23:24:07.678Z,72.20
2017-06-10T23:26:35.866Z,72.00
2017-06-10T23:29:04.032Z,71.80
2017-06-10T23:31:32.202Z,71.80
2017-06-10T23:34:00.381Z,71.90
2017-06-10T23:36:28.552Z,71.90
2017-06-10T23:38:56.706Z,72.10
2017-06-10T23:41:25.674Z,72.20
2017-06-10T23:43:53.853Z,72.10
2017-06-10T23:46:22.023Z,72.10
2017-06-10T23:48:50.198Z,71.90
2017-06-10T23:51:18.346Z,72.10
2017-06-10T23:53:46.501Z,72.50
2017-06-10T23:56:14.697Z,73.00
2017-06-10T23:58:42.840Z,73.40
